Alexis Sanchez

Olheiro - Toluca
22 Fev 2027
Segunda-feira
Processo

Personalidade

Adaptabilidade (19) Ambição (9) Controvérsia (11) Lealdade (14) Pressão (13) Profissionalismo (3) Espírito Esportivo (11) Temperamento (3)

Perfil

Estilo de Treinamento Democrático
Licença Continental C
Determinação 6
Gestão de Pessoas 13
Motivação 7
Disciplina 7
Satisfação no Trabalho
100%
Fadiga
0%
Função Olheiro
Salário 72.5K p/s
Contrato 14.03.2030

Desempenho

Comportamento Bom
Eficácia do Treinamento
51%
Desenvolvimento do Jogador
35%
Prevenção de Lesões
50%
Implementação Tática
60%

Eventos Recentes

Avaliou um jogador agora
Participou de uma reunião de recrutamento agora
Avaliou um jogador agora
Avaliou um jogador agora
Avaliou um jogador agora
Avaliou um jogador 7d atrás
Avaliou um jogador 7d atrás
Avaliou um jogador 7d atrás

Monitorando agora

89
Jogador Clube Status Habilidade Confiança Observado Última observação Último voto
Camilo Durán Bloemfontein Celtic Ativo 114 / 119 40% 4 20.02.2027 -
Brayan León Mamelodi Sundowns Ativo 130 / 123 40% 2 20.02.2027 -
Sam Greenwood Bristol City Ativo 123 / 126 40% 1 20.02.2027 -
Percy Erasmus SuperSport United Ativo 122 / 123 40% 2 19.02.2027 -
Solly Khunyedi Bloemfontein Celtic Ativo 103 / 98 40% 1 19.02.2027 -
Stav Toriel Hapoel Tel Aviv Ativo 125 / 125 40% 1 19.02.2027 -
Nacer Tielemans Mouscron Ativo 126 / 136 40% 2 18.02.2027 -
Lucas Jetten Cambuur Ativo 99 / 126 40% 1 18.02.2027 -
Toni Tamarit Alverca Ativo 123 / 111 40% 1 18.02.2027 -
Gonçalo Oliveira Benfica Ativo 118 / 109 40% 1 17.02.2027 -
Daniel Vernattus Metalist Ativo 80 / 97 40% 1 17.02.2027 -
Christ Inao Oulaï Fiorentina Ativo 145 / 143 40% 1 17.02.2027 -
Diego Valencia Gornik Leczna Ativo 117 / 115 40% 2 16.02.2027 -
Kauã Elias Shakhtar Ativo 126 / 141 40% 1 16.02.2027 -
Korede Osundina Casa Pia Ativo 115 / 123 40% 1 16.02.2027 -
Allahyar Sayyadmanesh Lech Ativo 121 / 128 40% 2 15.02.2027 -
Ashkan Shojaei Siah Jamegan Ativo 120 / 115 40% 2 13.02.2027 -
Efraín Álvarez Guadalajara Ativo 122 / 124 40% 2 13.02.2027 -
José Barreto Fehervar Ativo 103 / 104 40% 1 12.02.2027 -
Henrique Araújo Casa Pia Ativo 114 / 117 40% 1 10.02.2027 -
Carlos Torres Dibba Ativo 105 / 90 40% 1 10.02.2027 -
Rhys Chadwick Peterborough United Ativo 104 / 99 40% 1 09.02.2027 -
Arjan Malić Sturm Graz Ativo 121 / 114 40% 1 09.02.2027 -
Albert Bukari Liberty Professionals Ativo 86 / 103 40% 1 09.02.2027 -
Rabby Nzingoula West Bromwich Albion Ativo 126 / 134 40% 1 08.02.2027 -
Chris Rigg Sunderland Ativo 130 / 129 40% 1 08.02.2027 -
Bastien Meupiyou Alverca Ativo 119 / 127 40% 1 08.02.2027 -
Stephen Amankona Aduana Stars Ativo 106 / 102 40% 1 06.02.2027 -
Armstrong Oko-Flex Levski Ativo 119 / 129 40% 1 06.02.2027 -
Ashkan Hajsafi Gostaresh Foulad Ativo 114 / 128 40% 1 06.02.2027 -
Ozziel Herrera Tigres Ativo 122 / 130 40% 1 05.02.2027 -
Malik Mothersille Stockport County Ativo 104 / 125 40% 1 05.02.2027 -
Harrison Armstrong Everton Ativo 113 / 123 40% 1 04.02.2027 -
Milan Roganović Partizan Ativo 102 / 126 40% 1 04.02.2027 -
Bernardo Lima Porto Ativo 87 / 103 40% 1 04.02.2027 -
Bienvenue Kanakimana Zbrojovka Brno Ativo 128 / 120 40% 1 03.02.2027 -
Martim Cunha Porto Ativo 97 / 96 40% 1 02.02.2027 -
Daniel Banjaqui Benfica Ativo 102 / 125 40% 1 02.02.2027 -
Dani Ángel Crawley Town Ativo 92 / 92 40% 1 27.01.2027 -
Marcel Reguła Zaglebie Ativo 98 / 109 40% 1 27.01.2027 -
Rocco Vata Watford Ativo 133 / 128 40% 1 27.01.2027 -
Oumar Camara Vitoria Guimaraes Ativo 118 / 134 40% 1 11.01.2027 -
Diego Porcel Argentinos Juniors Ativo 116 / 120 40% 1 11.01.2027 -
Lorenzo Pirola Olympiacos Ativo 142 / 125 40% 4 28.12.2026 -
Kings Kangwa Panathinaikos Ativo 146 / 133 40% 2 28.12.2026 -
Franco Ibarra Rosario Central Ativo 128 / 125 40% 1 28.12.2026 -
Christian Krasnodar Ativo 144 / 138 40% 3 26.12.2026 -
Sebastián Cáceres Club America Ativo 128 / 131 40% 2 26.12.2026 -
Jadsom Al Wahda Ativo 121 / 125 40% 1 26.12.2026 -
Sergio Quintero La Equidad Perdido 137 / 147 40% 5 25.12.2026 -
Erik Lira Cruz Azul Ativo 141 / 130 40% 3 25.12.2026 -
Vinicius Tobias Shakhtar Ativo 129 / 126 40% 4 24.12.2026 -
Rodrigo Huescas FC Copenhagen Ativo 124 / 144 40% 3 24.12.2026 -
Kevin Lomónaco Independiente Perdido 134 / 129 40% 3 24.12.2026 -
Kevin Álvarez Club America Ativo 136 / 125 40% 4 22.12.2026 -
Marlon Gomes Shakhtar Ativo 145 / 143 40% 1 22.12.2026 -
Richard Ledezma Guadalajara Ativo 130 / 137 40% 3 21.12.2026 -
Tim Jabol-Folcarelli Trabzonspor Ativo 126 / 139 40% 1 21.12.2026 -
Yacine Adli Al-Shabab Ativo 144 / 144 40% 1 21.12.2026 -
Diego Costa Krasnodar Ativo 131 / 139 40% 2 15.12.2026 -
Tomás Händel Crvena Zvezda Ativo 121 / 118 40% 2 15.12.2026 -
Alexandr Siljanov Lokomotiv Moscow Ativo 129 / 129 40% 2 14.12.2026 -
Marcos López San Martín Ativo 131 / 127 40% 2 13.12.2026 -
Sergio Carreira Celta Ativo 140 / 143 40% 1 13.12.2026 -
Alexandr Chernikov Krasnodar Ativo 119 / 131 40% 3 11.12.2026 -
Jesús Orozco Chiquete Cruz Azul Perdido 124 / 130 40% 1 11.12.2026 -
Kaveh Mohammadi Padideh Ativo 131 / 129 40% 1 11.12.2026 -
Freddie Potts Club Brugge Ativo 141 / 126 40% 3 10.12.2026 -
Iván Martín Racing Club Ativo 139 / 144 40% 1 10.12.2026 -
David Zima Slavia Prague Ativo 129 / 132 40% 1 04.12.2026 -
Joaquim Tigres Ativo 131 / 135 40% 2 03.12.2026 -
Zaydou Youssouf Al-Fateh Ativo 126 / 137 40% 1 28.11.2026 -
Ramón Juárez Club America Ativo 130 / 131 40% 1 28.11.2026 -
Mattia Viti Sampdoria Ativo 125 / 133 40% 1 24.11.2026 -
Gianluca Busio Venezia Ativo 120 / 136 40% 1 24.11.2026 -
Ilay Camara Anderlecht Ativo 118 / 132 40% 1 24.11.2026 -
Metinho Basel Ativo 129 / 123 40% 1 23.11.2026 -
Sampson Dweh Viktoria Plzen Perdido 130 / 124 40% 1 23.11.2026 Mais informações
Ivan Edson Veracruz Ativo 124 / 129 40% 1 23.11.2026 -
Ayrton Costa Boca Juniors Perdido 133 / 125 40% 4 17.11.2026 -
Mattia Zanotti Lugano Ativo 127 / 140 40% 1 14.11.2026 -
Armel Bella-Kotchap Venezia Ativo 138 / 127 40% 1 14.11.2026 -
Sergio Barreto Pachuca Ativo 130 / 130 40% 2 12.11.2026 -
Pablo Ramón Racing Club Ativo 137 / 134 40% 1 10.11.2026 -
Aníbal Moreno River Plate Ativo 127 / 127 40% 1 03.11.2026 -
Mads Bech Sørensen FC Midtjylland Ativo 136 / 127 40% 1 03.11.2026 -
Michy Lukaku Mouscron Ativo 129 / 124 40% 1 03.11.2026 -
Gabriel Pereira FC Copenhagen Ativo 123 / 126 40% 1 02.11.2026 -
Pedro Henrique Shakhtar Ativo 119 / 125 40% 1 02.11.2026 -